sensor_id;sensor_type;location;lat;lon;timestamp;P1;durP1;ratioP1;P2;durP2;ratioP2
9156;SDS011;4613;48.392;9.998;2022-08-21T00:00:11;1.50;;;1.40;;
9156;SDS011;4613;48.392;9.998;2022-08-21T00:02:47;1.73;;;1.63;;
9156;SDS011;4613;48.392;9.998;2022-08-21T00:05:22;1.60;;;1.50;;
9156;SDS011;4613;48.392;9.998;2022-08-21T00:07:53;1.50;;;1.40;;
9156;SDS011;4613;48.392;9.998;2022-08-21T00:10:25;1.40;;;1.30;;
9156;SDS011;4613;48.392;9.998;2022-08-21T00:12:56;1.47;;;1.37;;
9156;SDS011;4613;48.392;9.998;2022-08-21T00:15:28;1.40;;;1.40;;
9156;SDS011;4613;48.392;9.998;2022-08-21T00:18:00;1.80;;;1.70;;
9156;SDS011;4613;48.392;9.998;2022-08-21T00:20:32;1.70;;;1.60;;
9156;SDS011;4613;48.392;9.998;2022-08-21T00:23:04;1.50;;;1.40;;
9156;SDS011;4613;48.392;9.998;2022-08-21T00:25:35;2.13;;;2.03;;
9156;SDS011;4613;48.392;9.998;2022-08-21T00:28:07;2.00;;;1.90;;
9156;SDS011;4613;48.392;9.998;2022-08-21T00:30:38;2.00;;;1.90;;
9156;SDS011;4613;48.392;9.998;2022-08-21T00:33:10;2.20;;;2.00;;
9156;SDS011;4613;48.392;9.998;2022-08-21T00:35:42;2.53;;;2.33;;
9156;SDS011;4613;48.392;9.998;2022-08-21T00:38:13;2.90;;;2.50;;
9156;SDS011;4613;48.392;9.998;2022-08-21T00:40:49;2.50;;;2.30;;
9156;SDS011;4613;48.392;9.998;2022-08-21T00:43:26;2.60;;;2.40;;
9156;SDS011;4613;48.392;9.998;2022-08-21T00:46:02;2.50;;;2.30;;
9156;SDS011;4613;48.392;9.998;2022-08-21T00:48:34;2.67;;;2.40;;
9156;SDS011;4613;48.392;9.998;2022-08-21T00:51:16;2.90;;;2.70;;
9156;SDS011;4613;48.392;9.998;2022-08-21T00:53:54;3.20;;;2.90;;
9156;SDS011;4613;48.392;9.998;2022-08-21T00:56:28;3.10;;;2.80;;
9156;SDS011;4613;48.392;9.998;2022-08-21T00:58:59;3.40;;;3.10;;
9156;SDS011;4613;48.392;9.998;2022-08-21T01:01:31;3.13;;;2.77;;
9156;SDS011;4613;48.392;9.998;2022-08-21T01:04:02;3.17;;;2.83;;
9156;SDS011;4613;48.392;9.998;2022-08-21T01:06:33;3.50;;;3.20;;
9156;SDS011;4613;48.392;9.998;2022-08-21T01:09:05;3.37;;;3.07;;
9156;SDS011;4613;48.392;9.998;2022-08-21T01:11:36;2.80;;;2.47;;
9156;SDS011;4613;48.392;9.998;2022-08-21T01:14:08;3.17;;;2.70;;
9156;SDS011;4613;48.392;9.998;2022-08-21T01:16:43;2.80;;;2.60;;
9156;SDS011;4613;48.392;9.998;2022-08-21T01:19:16;3.20;;;2.90;;
9156;SDS011;4613;48.392;9.998;2022-08-21T01:21:50;3.27;;;2.97;;
9156;SDS011;4613;48.392;9.998;2022-08-21T01:24:22;3.83;;;3.50;;
9156;SDS011;4613;48.392;9.998;2022-08-21T01:26:53;3.50;;;2.73;;
9156;SDS011;4613;48.392;9.998;2022-08-21T01:32:21;2.97;;;2.60;;
9156;SDS011;4613;48.392;9.998;2022-08-21T01:34:53;2.97;;;2.57;;
9156;SDS011;4613;48.392;9.998;2022-08-21T01:37:24;2.83;;;2.63;;
9156;SDS011;4613;48.392;9.998;2022-08-21T01:39:55;2.70;;;2.50;;
9156;SDS011;4613;48.392;9.998;2022-08-21T01:42:26;2.60;;;2.40;;
9156;SDS011;4613;48.392;9.998;2022-08-21T01:44:57;2.60;;;2.37;;
9156;SDS011;4613;48.392;9.998;2022-08-21T01:47:28;2.50;;;2.30;;
9156;SDS011;4613;48.392;9.998;2022-08-21T01:49:59;2.87;;;2.57;;
9156;SDS011;4613;48.392;9.998;2022-08-21T01:52:31;3.20;;;2.90;;
9156;SDS011;4613;48.392;9.998;2022-08-21T01:55:03;2.57;;;2.37;;
9156;SDS011;4613;48.392;9.998;2022-08-21T01:57:36;2.97;;;2.67;;
9156;SDS011;4613;48.392;9.998;2022-08-21T02:00:08;3.03;;;2.73;;
9156;SDS011;4613;48.392;9.998;2022-08-21T02:02:44;2.60;;;2.33;;
9156;SDS011;4613;48.392;9.998;2022-08-21T02:05:15;2.43;;;2.23;;
9156;SDS011;4613;48.392;9.998;2022-08-21T02:07:48;2.37;;;2.17;;
9156;SDS011;4613;48.392;9.998;2022-08-21T02:10:26;2.67;;;2.47;;
9156;SDS011;4613;48.392;9.998;2022-08-21T02:13:00;2.80;;;2.60;;
9156;SDS011;4613;48.392;9.998;2022-08-21T02:15:31;2.77;;;2.50;;
9156;SDS011;4613;48.392;9.998;2022-08-21T02:18:02;2.30;;;2.10;;
9156;SDS011;4613;48.392;9.998;2022-08-21T02:20:38;2.23;;;2.03;;
9156;SDS011;4613;48.392;9.998;2022-08-21T02:23:11;2.30;;;2.10;;
9156;SDS011;4613;48.392;9.998;2022-08-21T02:25:42;2.40;;;2.20;;
9156;SDS011;4613;48.392;9.998;2022-08-21T02:28:13;2.17;;;2.00;;
9156;SDS011;4613;48.392;9.998;2022-08-21T02:30:46;2.30;;;2.10;;
9156;SDS011;4613;48.392;9.998;2022-08-21T02:33:17;1.97;;;1.87;;
9156;SDS011;4613;48.392;9.998;2022-08-21T02:35:49;2.13;;;2.03;;
9156;SDS011;4613;48.392;9.998;2022-08-21T02:38:22;2.60;;;2.17;;
9156;SDS011;4613;48.392;9.998;2022-08-21T02:40:59;2.67;;;2.40;;
9156;SDS011;4613;48.392;9.998;2022-08-21T02:43:30;2.53;;;2.33;;
9156;SDS011;4613;48.392;9.998;2022-08-21T02:46:02;2.90;;;2.57;;
9156;SDS011;4613;48.392;9.998;2022-08-21T02:48:34;2.50;;;2.30;;
9156;SDS011;4613;48.392;9.998;2022-08-21T02:51:16;2.50;;;2.30;;
9156;SDS011;4613;48.392;9.998;2022-08-21T02:53:48;2.43;;;2.23;;
9156;SDS011;4613;48.392;9.998;2022-08-21T02:56:20;2.60;;;2.40;;
9156;SDS011;4613;48.392;9.998;2022-08-21T02:58:52;2.70;;;2.50;;
9156;SDS011;4613;48.392;9.998;2022-08-21T03:01:23;2.80;;;2.60;;
9156;SDS011;4613;48.392;9.998;2022-08-21T03:03:54;2.93;;;2.70;;
9156;SDS011;4613;48.392;9.998;2022-08-21T03:06:24;2.63;;;2.43;;
9156;SDS011;4613;48.392;9.998;2022-08-21T03:08:55;2.90;;;2.70;;
9156;SDS011;4613;48.392;9.998;2022-08-21T03:11:27;2.57;;;2.37;;
9156;SDS011;4613;48.392;9.998;2022-08-21T03:13:59;2.87;;;2.57;;
9156;SDS011;4613;48.392;9.998;2022-08-21T03:16:29;3.30;;;3.00;;
9156;SDS011;4613;48.392;9.998;2022-08-21T03:19:00;3.07;;;2.77;;
9156;SDS011;4613;48.392;9.998;2022-08-21T03:21:32;3.50;;;3.10;;
9156;SDS011;4613;48.392;9.998;2022-08-21T03:24:03;2.57;;;2.23;;
9156;SDS011;4613;48.392;9.998;2022-08-21T03:26:35;3.10;;;2.73;;
9156;SDS011;4613;48.392;9.998;2022-08-21T03:29:06;2.93;;;2.60;;
9156;SDS011;4613;48.392;9.998;2022-08-21T03:31:37;3.00;;;2.70;;
9156;SDS011;4613;48.392;9.998;2022-08-21T03:34:08;3.20;;;2.90;;
9156;SDS011;4613;48.392;9.998;2022-08-21T03:36:39;3.60;;;3.20;;
9156;SDS011;4613;48.392;9.998;2022-08-21T03:39:10;3.30;;;3.00;;
9156;SDS011;4613;48.392;9.998;2022-08-21T03:41:41;4.73;;;3.23;;
9156;SDS011;4613;48.392;9.998;2022-08-21T03:44:12;3.40;;;3.07;;
9156;SDS011;4613;48.392;9.998;2022-08-21T03:46:43;3.53;;;3.00;;
9156;SDS011;4613;48.392;9.998;2022-08-21T03:49:14;3.20;;;2.90;;
9156;SDS011;4613;48.392;9.998;2022-08-21T03:51:45;3.80;;;3.07;;
9156;SDS011;4613;48.392;9.998;2022-08-21T03:54:16;3.57;;;3.00;;
9156;SDS011;4613;48.392;9.998;2022-08-21T03:56:47;3.30;;;2.93;;
9156;SDS011;4613;48.392;9.998;2022-08-21T03:59:19;3.33;;;2.83;;
9156;SDS011;4613;48.392;9.998;2022-08-21T04:01:51;3.43;;;2.77;;
9156;SDS011;4613;48.392;9.998;2022-08-21T04:04:31;2.80;;;2.60;;
9156;SDS011;4613;48.392;9.998;2022-08-21T04:07:03;2.73;;;2.53;;
9156;SDS011;4613;48.392;9.998;2022-08-21T04:09:34;3.00;;;2.70;;
9156;SDS011;4613;48.392;9.998;2022-08-21T04:12:06;2.70;;;2.43;;
9156;SDS011;4613;48.392;9.998;2022-08-21T04:14:37;2.30;;;2.10;;
9156;SDS011;4613;48.392;9.998;2022-08-21T04:17:08;2.30;;;2.10;;
9156;SDS011;4613;48.392;9.998;2022-08-21T04:19:39;2.53;;;2.33;;
9156;SDS011;4613;48.392;9.998;2022-08-21T04:22:10;2.47;;;2.27;;
9156;SDS011;4613;48.392;9.998;2022-08-21T04:24:41;2.77;;;2.37;;
9156;SDS011;4613;48.392;9.998;2022-08-21T04:27:12;2.50;;;2.30;;
9156;SDS011;4613;48.392;9.998;2022-08-21T04:29:42;2.40;;;1.93;;
9156;SDS011;4613;48.392;9.998;2022-08-21T04:32:13;2.30;;;2.10;;
9156;SDS011;4613;48.392;9.998;2022-08-21T04:34:59;2.93;;;2.40;;
9156;SDS011;4613;48.392;9.998;2022-08-21T04:37:31;2.90;;;2.50;;
9156;SDS011;4613;48.392;9.998;2022-08-21T04:40:02;3.10;;;2.77;;
9156;SDS011;4613;48.392;9.998;2022-08-21T04:42:40;3.13;;;2.60;;
9156;SDS011;4613;48.392;9.998;2022-08-21T04:45:31;2.90;;;2.60;;
9156;SDS011;4613;48.392;9.998;2022-08-21T04:48:06;3.07;;;2.57;;
9156;SDS011;4613;48.392;9.998;2022-08-21T04:51:12;2.80;;;2.60;;
9156;SDS011;4613;48.392;9.998;2022-08-21T04:53:48;2.90;;;2.60;;
9156;SDS011;4613;48.392;9.998;2022-08-21T04:56:21;3.00;;;2.70;;
9156;SDS011;4613;48.392;9.998;2022-08-21T04:58:58;2.70;;;2.50;;
9156;SDS011;4613;48.392;9.998;2022-08-21T05:01:34;3.10;;;2.80;;
9156;SDS011;4613;48.392;9.998;2022-08-21T05:04:07;3.00;;;2.70;;
9156;SDS011;4613;48.392;9.998;2022-08-21T05:06:40;3.07;;;2.47;;
9156;SDS011;4613;48.392;9.998;2022-08-21T05:09:14;3.17;;;2.80;;
9156;SDS011;4613;48.392;9.998;2022-08-21T05:11:47;2.87;;;2.60;;
9156;SDS011;4613;48.392;9.998;2022-08-21T05:14:19;2.57;;;2.37;;
9156;SDS011;4613;48.392;9.998;2022-08-21T05:16:50;2.83;;;2.43;;
9156;SDS011;4613;48.392;9.998;2022-08-21T05:19:21;2.50;;;2.30;;
9156;SDS011;4613;48.392;9.998;2022-08-21T05:21:53;2.87;;;2.30;;
9156;SDS011;4613;48.392;9.998;2022-08-21T05:24:28;3.13;;;2.83;;
9156;SDS011;4613;48.392;9.998;2022-08-21T05:26:59;2.80;;;2.60;;
9156;SDS011;4613;48.392;9.998;2022-08-21T05:29:30;3.70;;;2.97;;
9156;SDS011;4613;48.392;9.998;2022-08-21T05:32:03;2.70;;;2.50;;
9156;SDS011;4613;48.392;9.998;2022-08-21T05:34:40;2.60;;;2.40;;
9156;SDS011;4613;48.392;9.998;2022-08-21T05:37:11;2.60;;;2.40;;
9156;SDS011;4613;48.392;9.998;2022-08-21T05:39:42;2.47;;;2.27;;
9156;SDS011;4613;48.392;9.998;2022-08-21T05:42:13;2.47;;;2.20;;
9156;SDS011;4613;48.392;9.998;2022-08-21T05:44:44;2.23;;;2.03;;
9156;SDS011;4613;48.392;9.998;2022-08-21T05:47:15;2.67;;;2.33;;
9156;SDS011;4613;48.392;9.998;2022-08-21T05:49:46;2.20;;;2.00;;
9156;SDS011;4613;48.392;9.998;2022-08-21T05:52:19;2.40;;;2.20;;
9156;SDS011;4613;48.392;9.998;2022-08-21T05:54:51;2.57;;;1.90;;
9156;SDS011;4613;48.392;9.998;2022-08-21T05:57:24;1.80;;;1.70;;
9156;SDS011;4613;48.392;9.998;2022-08-21T05:59:55;1.80;;;1.70;;
9156;SDS011;4613;48.392;9.998;2022-08-21T06:02:26;1.80;;;1.70;;
9156;SDS011;4613;48.392;9.998;2022-08-21T06:04:57;1.87;;;1.77;;
9156;SDS011;4613;48.392;9.998;2022-08-21T06:07:28;2.10;;;2.00;;
9156;SDS011;4613;48.392;9.998;2022-08-21T06:09:59;2.57;;;2.37;;
9156;SDS011;4613;48.392;9.998;2022-08-21T06:12:30;3.07;;;2.37;;
9156;SDS011;4613;48.392;9.998;2022-08-21T06:15:00;1.97;;;1.87;;
9156;SDS011;4613;48.392;9.998;2022-08-21T06:17:31;2.67;;;2.47;;
9156;SDS011;4613;48.392;9.998;2022-08-21T06:20:02;2.60;;;2.40;;
9156;SDS011;4613;48.392;9.998;2022-08-21T06:22:34;3.10;;;2.17;;
9156;SDS011;4613;48.392;9.998;2022-08-21T06:25:05;3.00;;;2.70;;
9156;SDS011;4613;48.392;9.998;2022-08-21T06:27:36;2.70;;;2.50;;
9156;SDS011;4613;48.392;9.998;2022-08-21T06:30:07;2.73;;;2.43;;
9156;SDS011;4613;48.392;9.998;2022-08-21T06:32:39;2.97;;;2.57;;
9156;SDS011;4613;48.392;9.998;2022-08-21T06:35:10;3.30;;;2.93;;
9156;SDS011;4613;48.392;9.998;2022-08-21T06:37:41;2.60;;;2.40;;
9156;SDS011;4613;48.392;9.998;2022-08-21T06:40:12;3.17;;;2.87;;
9156;SDS011;4613;48.392;9.998;2022-08-21T06:42:43;2.80;;;2.60;;
9156;SDS011;4613;48.392;9.998;2022-08-21T06:45:14;3.20;;;2.90;;
9156;SDS011;4613;48.392;9.998;2022-08-21T06:47:45;3.50;;;2.90;;
9156;SDS011;4613;48.392;9.998;2022-08-21T06:50:16;3.00;;;2.53;;
9156;SDS011;4613;48.392;9.998;2022-08-21T06:52:47;3.20;;;2.90;;
9156;SDS011;4613;48.392;9.998;2022-08-21T06:55:17;3.00;;;2.70;;
9156;SDS011;4613;48.392;9.998;2022-08-21T06:57:48;2.70;;;2.50;;
9156;SDS011;4613;48.392;9.998;2022-08-21T07:00:19;2.70;;;2.37;;
9156;SDS011;4613;48.392;9.998;2022-08-21T07:02:50;2.50;;;2.30;;
9156;SDS011;4613;48.392;9.998;2022-08-21T07:05:21;2.60;;;2.40;;
9156;SDS011;4613;48.392;9.998;2022-08-21T07:07:55;4.00;;;2.60;;
9156;SDS011;4613;48.392;9.998;2022-08-21T07:10:27;2.70;;;2.37;;
9156;SDS011;4613;48.392;9.998;2022-08-21T07:12:58;2.60;;;2.40;;
9156;SDS011;4613;48.392;9.998;2022-08-21T07:15:29;2.87;;;2.40;;
9156;SDS011;4613;48.392;9.998;2022-08-21T07:18:00;2.50;;;2.30;;
9156;SDS011;4613;48.392;9.998;2022-08-21T07:20:31;3.60;;;2.37;;
9156;SDS011;4613;48.392;9.998;2022-08-21T07:23:04;2.63;;;2.43;;
9156;SDS011;4613;48.392;9.998;2022-08-21T07:25:38;2.53;;;2.30;;
9156;SDS011;4613;48.392;9.998;2022-08-21T07:28:09;3.40;;;2.63;;
9156;SDS011;4613;48.392;9.998;2022-08-21T07:30:41;2.10;;;2.00;;
9156;SDS011;4613;48.392;9.998;2022-08-21T07:33:11;2.50;;;2.30;;
9156;SDS011;4613;48.392;9.998;2022-08-21T07:35:42;2.60;;;2.40;;
9156;SDS011;4613;48.392;9.998;2022-08-21T07:38:13;2.13;;;2.00;;
9156;SDS011;4613;48.392;9.998;2022-08-21T07:40:45;2.03;;;1.93;;
9156;SDS011;4613;48.392;9.998;2022-08-21T07:46:04;2.50;;;2.30;;
9156;SDS011;4613;48.392;9.998;2022-08-21T07:48:36;3.63;;;3.10;;
9156;SDS011;4613;48.392;9.998;2022-08-21T07:51:09;2.30;;;2.10;;
9156;SDS011;4613;48.392;9.998;2022-08-21T07:53:46;2.07;;;1.97;;
9156;SDS011;4613;48.392;9.998;2022-08-21T07:56:20;1.87;;;1.77;;
9156;SDS011;4613;48.392;9.998;2022-08-21T07:58:51;2.40;;;2.20;;
9156;SDS011;4613;48.392;9.998;2022-08-21T08:01:22;1.90;;;1.80;;
9156;SDS011;4613;48.392;9.998;2022-08-21T08:03:54;2.00;;;1.80;;
9156;SDS011;4613;48.392;9.998;2022-08-21T08:06:26;1.77;;;1.67;;
9156;SDS011;4613;48.392;9.998;2022-08-21T08:08:57;1.80;;;1.70;;
9156;SDS011;4613;48.392;9.998;2022-08-21T08:11:28;2.00;;;1.70;;
9156;SDS011;4613;48.392;9.998;2022-08-21T08:13:59;1.80;;;1.70;;
9156;SDS011;4613;48.392;9.998;2022-08-21T08:16:30;2.90;;;1.87;;
9156;SDS011;4613;48.392;9.998;2022-08-21T08:19:00;2.00;;;1.80;;
9156;SDS011;4613;48.392;9.998;2022-08-21T08:21:32;1.93;;;1.60;;
9156;SDS011;4613;48.392;9.998;2022-08-21T08:24:03;1.80;;;1.70;;
9156;SDS011;4613;48.392;9.998;2022-08-21T08:26:35;2.10;;;2.00;;
9156;SDS011;4613;48.392;9.998;2022-08-21T08:29:06;2.50;;;1.80;;
9156;SDS011;4613;48.392;9.998;2022-08-21T08:31:36;1.83;;;1.73;;
9156;SDS011;4613;48.392;9.998;2022-08-21T08:34:07;1.80;;;1.70;;
9156;SDS011;4613;48.392;9.998;2022-08-21T08:36:38;1.60;;;1.50;;
9156;SDS011;4613;48.392;9.998;2022-08-21T08:39:10;1.50;;;1.40;;
9156;SDS011;4613;48.392;9.998;2022-08-21T08:41:41;1.90;;;1.80;;
9156;SDS011;4613;48.392;9.998;2022-08-21T08:44:15;1.63;;;1.53;;
9156;SDS011;4613;48.392;9.998;2022-08-21T08:46:47;1.80;;;1.70;;
9156;SDS011;4613;48.392;9.998;2022-08-21T08:49:23;1.70;;;1.60;;
9156;SDS011;4613;48.392;9.998;2022-08-21T08:54:43;1.70;;;1.60;;
9156;SDS011;4613;48.392;9.998;2022-08-21T08:57:20;1.80;;;1.70;;
9156;SDS011;4613;48.392;9.998;2022-08-21T08:59:55;1.47;;;1.37;;
9156;SDS011;4613;48.392;9.998;2022-08-21T09:02:28;1.70;;;1.60;;
9156;SDS011;4613;48.392;9.998;2022-08-21T09:04:59;1.70;;;1.60;;
9156;SDS011;4613;48.392;9.998;2022-08-21T09:16:47;1.53;;;1.43;;
9156;SDS011;4613;48.392;9.998;2022-08-21T09:19:35;1.60;;;1.50;;
9156;SDS011;4613;48.392;9.998;2022-08-21T09:27:37;1.63;;;1.40;;
9156;SDS011;4613;48.392;9.998;2022-08-21T09:30:10;1.20;;;1.20;;
9156;SDS011;4613;48.392;9.998;2022-08-21T09:32:41;1.83;;;1.40;;
9156;SDS011;4613;48.392;9.998;2022-08-21T09:35:16;1.73;;;1.60;;
9156;SDS011;4613;48.392;9.998;2022-08-21T09:37:54;1.70;;;1.50;;
9156;SDS011;4613;48.392;9.998;2022-08-21T09:45:40;1.50;;;1.40;;
9156;SDS011;4613;48.392;9.998;2022-08-21T09:48:20;1.37;;;1.27;;
9156;SDS011;4613;48.392;9.998;2022-08-21T09:50:53;1.40;;;1.30;;
9156;SDS011;4613;48.392;9.998;2022-08-21T09:53:37;1.30;;;1.20;;
9156;SDS011;4613;48.392;9.998;2022-08-21T09:56:21;1.30;;;1.20;;
9156;SDS011;4613;48.392;9.998;2022-08-21T09:59:15;1.40;;;1.30;;
9156;SDS011;4613;48.392;9.998;2022-08-21T10:01:56;1.73;;;1.53;;
9156;SDS011;4613;48.392;9.998;2022-08-21T10:04:31;1.40;;;1.30;;
9156;SDS011;4613;48.392;9.998;2022-08-21T10:07:10;1.37;;;1.27;;
9156;SDS011;4613;48.392;9.998;2022-08-21T10:09:43;1.30;;;1.30;;
9156;SDS011;4613;48.392;9.998;2022-08-21T10:12:16;1.17;;;1.17;;
9156;SDS011;4613;48.392;9.998;2022-08-21T10:20:07;1.47;;;1.37;;
9156;SDS011;4613;48.392;9.998;2022-08-21T10:25:48;1.50;;;1.40;;
9156;SDS011;4613;48.392;9.998;2022-08-21T10:31:24;1.50;;;1.40;;
9156;SDS011;4613;48.392;9.998;2022-08-21T10:34:22;1.60;;;1.50;;
9156;SDS011;4613;48.392;9.998;2022-08-21T10:46:00;1.33;;;1.23;;
9156;SDS011;4613;48.392;9.998;2022-08-21T10:52:07;1.50;;;1.40;;
9156;SDS011;4613;48.392;9.998;2022-08-21T11:00:19;1.70;;;1.47;;
9156;SDS011;4613;48.392;9.998;2022-08-21T11:02:56;1.20;;;1.20;;
9156;SDS011;4613;48.392;9.998;2022-08-21T11:05:36;1.50;;;1.40;;
9156;SDS011;4613;48.392;9.998;2022-08-21T11:08:26;1.30;;;1.30;;
9156;SDS011;4613;48.392;9.998;2022-08-21T11:11:31;1.50;;;1.40;;
9156;SDS011;4613;48.392;9.998;2022-08-21T11:17:07;1.40;;;1.30;;
9156;SDS011;4613;48.392;9.998;2022-08-21T11:25:44;1.50;;;1.40;;
9156;SDS011;4613;48.392;9.998;2022-08-21T11:28:24;1.27;;;1.20;;
9156;SDS011;4613;48.392;9.998;2022-08-21T11:37:01;1.30;;;1.30;;
9156;SDS011;4613;48.392;9.998;2022-08-21T11:39:51;1.63;;;1.50;;
9156;SDS011;4613;48.392;9.998;2022-08-21T11:50:24;1.40;;;1.30;;
9156;SDS011;4613;48.392;9.998;2022-08-21T11:53:00;1.50;;;1.40;;
9156;SDS011;4613;48.392;9.998;2022-08-21T11:55:41;1.40;;;1.30;;
9156;SDS011;4613;48.392;9.998;2022-08-21T11:58:26;1.50;;;1.40;;
9156;SDS011;4613;48.392;9.998;2022-08-21T12:01:10;1.47;;;1.37;;
9156;SDS011;4613;48.392;9.998;2022-08-21T12:04:03;1.10;;;1.10;;
9156;SDS011;4613;48.392;9.998;2022-08-21T12:06:40;1.90;;;1.20;;
9156;SDS011;4613;48.392;9.998;2022-08-21T12:12:12;1.10;;;1.10;;
9156;SDS011;4613;48.392;9.998;2022-08-21T12:15:04;1.40;;;1.30;;
9156;SDS011;4613;48.392;9.998;2022-08-21T12:21:00;1.50;;;1.40;;
9156;SDS011;4613;48.392;9.998;2022-08-21T12:24:00;1.37;;;1.30;;
9156;SDS011;4613;48.392;9.998;2022-08-21T12:26:35;1.77;;;1.37;;
9156;SDS011;4613;48.392;9.998;2022-08-21T12:29:31;1.40;;;1.30;;
9156;SDS011;4613;48.392;9.998;2022-08-21T12:35:26;1.27;;;1.20;;
9156;SDS011;4613;48.392;9.998;2022-08-21T12:37:40;1.37;;;1.30;;
9156;SDS011;4613;48.392;9.998;2022-08-21T12:40:20;1.30;;;1.20;;
9156;SDS011;4613;48.392;9.998;2022-08-21T12:43:11;1.40;;;1.20;;
9156;SDS011;4613;48.392;9.998;2022-08-21T12:45:47;1.40;;;1.30;;
9156;SDS011;4613;48.392;9.998;2022-08-21T12:51:14;1.60;;;1.10;;
9156;SDS011;4613;48.392;9.998;2022-08-21T12:53:49;1.10;;;1.10;;
9156;SDS011;4613;48.392;9.998;2022-08-21T12:56:29;1.20;;;1.20;;
9156;SDS011;4613;48.392;9.998;2022-08-21T12:59:04;1.40;;;1.30;;
9156;SDS011;4613;48.392;9.998;2022-08-21T13:01:39;1.60;;;1.50;;
9156;SDS011;4613;48.392;9.998;2022-08-21T13:04:23;1.30;;;1.30;;
9156;SDS011;4613;48.392;9.998;2022-08-21T13:07:10;1.60;;;1.50;;
9156;SDS011;4613;48.392;9.998;2022-08-21T13:09:48;1.43;;;1.33;;
9156;SDS011;4613;48.392;9.998;2022-08-21T13:12:24;2.17;;;1.60;;
9156;SDS011;4613;48.392;9.998;2022-08-21T13:14:58;1.67;;;1.57;;
9156;SDS011;4613;48.392;9.998;2022-08-21T13:17:34;1.50;;;1.40;;
9156;SDS011;4613;48.392;9.998;2022-08-21T13:20:18;1.47;;;1.37;;
9156;SDS011;4613;48.392;9.998;2022-08-21T13:22:49;1.63;;;1.53;;
9156;SDS011;4613;48.392;9.998;2022-08-21T13:25:21;1.23;;;1.20;;
9156;SDS011;4613;48.392;9.998;2022-08-21T13:28:04;1.47;;;1.33;;
9156;SDS011;4613;48.392;9.998;2022-08-21T13:30:39;1.60;;;1.50;;
9156;SDS011;4613;48.392;9.998;2022-08-21T13:33:15;1.37;;;1.27;;
9156;SDS011;4613;48.392;9.998;2022-08-21T13:36:03;1.60;;;1.50;;
9156;SDS011;4613;48.392;9.998;2022-08-21T13:38:40;1.30;;;1.23;;
9156;SDS011;4613;48.392;9.998;2022-08-21T13:41:17;1.40;;;1.30;;
9156;SDS011;4613;48.392;9.998;2022-08-21T13:44:31;1.40;;;1.30;;
9156;SDS011;4613;48.392;9.998;2022-08-21T13:46:49;1.40;;;1.30;;
9156;SDS011;4613;48.392;9.998;2022-08-21T13:49:23;1.50;;;1.40;;
9156;SDS011;4613;48.392;9.998;2022-08-21T13:52:00;1.33;;;1.30;;
9156;SDS011;4613;48.392;9.998;2022-08-21T13:54:37;1.70;;;1.60;;
9156;SDS011;4613;48.392;9.998;2022-08-21T13:57:23;3.50;;;2.73;;
9156;SDS011;4613;48.392;9.998;2022-08-21T14:00:10;1.93;;;1.30;;
9156;SDS011;4613;48.392;9.998;2022-08-21T14:02:49;1.57;;;1.30;;
9156;SDS011;4613;48.392;9.998;2022-08-21T14:05:27;1.60;;;1.50;;
9156;SDS011;4613;48.392;9.998;2022-08-21T14:10:42;1.40;;;1.30;;
9156;SDS011;4613;48.392;9.998;2022-08-21T14:15:58;1.60;;;1.50;;
9156;SDS011;4613;48.392;9.998;2022-08-21T14:18:31;1.40;;;1.30;;
9156;SDS011;4613;48.392;9.998;2022-08-21T14:21:29;1.30;;;1.20;;
9156;SDS011;4613;48.392;9.998;2022-08-21T14:29:36;1.60;;;1.50;;
9156;SDS011;4613;48.392;9.998;2022-08-21T14:32:14;1.50;;;1.40;;
9156;SDS011;4613;48.392;9.998;2022-08-21T14:34:49;1.13;;;1.13;;
9156;SDS011;4613;48.392;9.998;2022-08-21T14:37:21;1.10;;;1.10;;
9156;SDS011;4613;48.392;9.998;2022-08-21T14:39:53;1.30;;;1.30;;
9156;SDS011;4613;48.392;9.998;2022-08-21T14:42:24;1.23;;;1.20;;
9156;SDS011;4613;48.392;9.998;2022-08-21T14:44:57;1.20;;;1.20;;
9156;SDS011;4613;48.392;9.998;2022-08-21T14:47:31;1.40;;;1.30;;
9156;SDS011;4613;48.392;9.998;2022-08-21T14:50:02;1.40;;;1.30;;
9156;SDS011;4613;48.392;9.998;2022-08-21T14:52:33;1.27;;;1.20;;
9156;SDS011;4613;48.392;9.998;2022-08-21T14:55:05;1.10;;;1.10;;
9156;SDS011;4613;48.392;9.998;2022-08-21T14:57:37;1.67;;;1.57;;
9156;SDS011;4613;48.392;9.998;2022-08-21T15:00:09;1.17;;;1.17;;
9156;SDS011;4613;48.392;9.998;2022-08-21T15:02:42;2.17;;;1.23;;
9156;SDS011;4613;48.392;9.998;2022-08-21T15:05:15;1.20;;;1.20;;
9156;SDS011;4613;48.392;9.998;2022-08-21T15:07:47;1.27;;;1.27;;
9156;SDS011;4613;48.392;9.998;2022-08-21T15:10:18;2.00;;;1.83;;
9156;SDS011;4613;48.392;9.998;2022-08-21T15:12:49;1.70;;;1.60;;
9156;SDS011;4613;48.392;9.998;2022-08-21T15:15:20;1.73;;;1.63;;
9156;SDS011;4613;48.392;9.998;2022-08-21T15:17:51;1.50;;;1.40;;
9156;SDS011;4613;48.392;9.998;2022-08-21T15:20:22;1.50;;;1.27;;
9156;SDS011;4613;48.392;9.998;2022-08-21T15:22:53;1.40;;;1.30;;
9156;SDS011;4613;48.392;9.998;2022-08-21T15:25:24;1.30;;;1.20;;
9156;SDS011;4613;48.392;9.998;2022-08-21T15:27:55;1.27;;;1.20;;
9156;SDS011;4613;48.392;9.998;2022-08-21T15:30:28;1.50;;;1.40;;
9156;SDS011;4613;48.392;9.998;2022-08-21T15:33:00;1.53;;;1.33;;
9156;SDS011;4613;48.392;9.998;2022-08-21T15:35:31;1.20;;;1.20;;
9156;SDS011;4613;48.392;9.998;2022-08-21T15:38:03;1.13;;;1.10;;
9156;SDS011;4613;48.392;9.998;2022-08-21T15:40:35;1.40;;;1.30;;
9156;SDS011;4613;48.392;9.998;2022-08-21T15:43:06;1.60;;;1.50;;
9156;SDS011;4613;48.392;9.998;2022-08-21T15:45:42;1.37;;;1.27;;
9156;SDS011;4613;48.392;9.998;2022-08-21T15:48:13;1.10;;;1.10;;
9156;SDS011;4613;48.392;9.998;2022-08-21T15:50:44;2.23;;;2.03;;
9156;SDS011;4613;48.392;9.998;2022-08-21T15:53:15;1.60;;;1.50;;
9156;SDS011;4613;48.392;9.998;2022-08-21T15:55:48;2.03;;;1.90;;
9156;SDS011;4613;48.392;9.998;2022-08-21T15:58:20;1.20;;;1.20;;
9156;SDS011;4613;48.392;9.998;2022-08-21T16:00:52;1.53;;;1.43;;
9156;SDS011;4613;48.392;9.998;2022-08-21T16:03:23;1.43;;;1.33;;
9156;SDS011;4613;48.392;9.998;2022-08-21T16:05:56;1.67;;;1.57;;
9156;SDS011;4613;48.392;9.998;2022-08-21T16:08:27;1.70;;;1.60;;
9156;SDS011;4613;48.392;9.998;2022-08-21T16:10:59;1.20;;;1.20;;
9156;SDS011;4613;48.392;9.998;2022-08-21T16:13:33;1.00;;;1.00;;
9156;SDS011;4613;48.392;9.998;2022-08-21T16:16:15;1.60;;;1.33;;
9156;SDS011;4613;48.392;9.998;2022-08-21T16:18:49;1.30;;;1.20;;
9156;SDS011;4613;48.392;9.998;2022-08-21T16:21:22;1.30;;;1.20;;
9156;SDS011;4613;48.392;9.998;2022-08-21T16:23:56;1.13;;;1.13;;
9156;SDS011;4613;48.392;9.998;2022-08-21T16:26:27;1.40;;;1.30;;
9156;SDS011;4613;48.392;9.998;2022-08-21T16:28:59;1.30;;;1.20;;
9156;SDS011;4613;48.392;9.998;2022-08-21T16:31:32;1.50;;;1.20;;
9156;SDS011;4613;48.392;9.998;2022-08-21T16:34:04;1.50;;;1.40;;
9156;SDS011;4613;48.392;9.998;2022-08-21T16:36:34;1.30;;;1.20;;
9156;SDS011;4613;48.392;9.998;2022-08-21T16:39:06;1.20;;;1.10;;
9156;SDS011;4613;48.392;9.998;2022-08-21T16:41:37;1.20;;;1.20;;
9156;SDS011;4613;48.392;9.998;2022-08-21T16:44:09;1.30;;;1.20;;
9156;SDS011;4613;48.392;9.998;2022-08-21T16:46:42;1.10;;;1.10;;
9156;SDS011;4613;48.392;9.998;2022-08-21T16:49:13;1.40;;;1.30;;
9156;SDS011;4613;48.392;9.998;2022-08-21T16:51:47;1.10;;;1.10;;
9156;SDS011;4613;48.392;9.998;2022-08-21T16:54:18;1.30;;;1.20;;
9156;SDS011;4613;48.392;9.998;2022-08-21T16:56:49;1.33;;;1.20;;
9156;SDS011;4613;48.392;9.998;2022-08-21T16:59:21;1.47;;;1.37;;
9156;SDS011;4613;48.392;9.998;2022-08-21T17:01:52;1.30;;;1.30;;
9156;SDS011;4613;48.392;9.998;2022-08-21T17:04:24;1.30;;;1.30;;
9156;SDS011;4613;48.392;9.998;2022-08-21T17:06:57;1.30;;;1.30;;
9156;SDS011;4613;48.392;9.998;2022-08-21T17:09:28;1.57;;;1.47;;
9156;SDS011;4613;48.392;9.998;2022-08-21T17:11:59;1.20;;;1.10;;
9156;SDS011;4613;48.392;9.998;2022-08-21T17:14:30;1.30;;;1.20;;
9156;SDS011;4613;48.392;9.998;2022-08-21T17:17:00;1.40;;;1.30;;
9156;SDS011;4613;48.392;9.998;2022-08-21T17:19:34;1.30;;;1.30;;
9156;SDS011;4613;48.392;9.998;2022-08-21T17:22:05;1.90;;;1.80;;
9156;SDS011;4613;48.392;9.998;2022-08-21T17:24:37;1.63;;;1.37;;
9156;SDS011;4613;48.392;9.998;2022-08-21T17:27:09;1.37;;;1.27;;
9156;SDS011;4613;48.392;9.998;2022-08-21T17:29:42;1.20;;;1.20;;
9156;SDS011;4613;48.392;9.998;2022-08-21T17:32:13;1.50;;;1.40;;
9156;SDS011;4613;48.392;9.998;2022-08-21T17:34:45;2.43;;;1.80;;
9156;SDS011;4613;48.392;9.998;2022-08-21T17:37:17;1.70;;;1.60;;
9156;SDS011;4613;48.392;9.998;2022-08-21T17:39:48;1.20;;;1.20;;